createdAt,value
2023-04-19T00:00:33.164Z,10.72
2023-04-19T00:03:03.596Z,10.43
2023-04-19T00:05:38.361Z,10.74
2023-04-19T00:10:50.131Z,10.70
2023-04-19T00:13:17.128Z,10.72
2023-04-19T00:15:45.296Z,10.69
2023-04-19T00:18:15.033Z,10.61
2023-04-19T00:20:49.916Z,10.64
2023-04-19T00:23:25.051Z,10.71
2023-04-19T00:26:06.051Z,10.44
2023-04-19T00:28:35.364Z,10.62
2023-04-19T00:31:04.393Z,10.38
2023-04-19T00:33:34.900Z,10.64
2023-04-19T00:36:05.885Z,10.64
2023-04-19T00:38:34.202Z,10.11
2023-04-19T00:41:06.767Z,10.35
2023-04-19T00:43:35.500Z,10.31
2023-04-19T00:46:04.462Z,10.57
2023-04-19T00:51:20.321Z,10.47
2023-04-19T00:54:01.985Z,10.53
2023-04-19T00:56:35.363Z,10.42
2023-04-19T00:59:05.401Z,10.41
2023-04-19T01:01:45.331Z,10.60
2023-04-19T01:04:13.081Z,10.54
2023-04-19T01:06:59.612Z,10.42
2023-04-19T01:12:23.351Z,10.11
2023-04-19T01:18:09.529Z,10.39
2023-04-19T01:20:42.661Z,10.43
2023-04-19T01:23:37.224Z,10.10
2023-04-19T01:28:52.368Z,10.45
2023-04-19T01:31:28.707Z,10.17
2023-04-19T01:34:11.113Z,10.23
2023-04-19T01:36:43.082Z,10.47
2023-04-19T01:39:22.107Z,10.35
2023-04-19T01:41:49.011Z,10.48
2023-04-19T01:44:18.308Z,10.45
2023-04-19T01:46:46.063Z,10.43
2023-04-19T01:49:27.308Z,10.41
2023-04-19T01:54:45.512Z,10.42
2023-04-19T01:57:14.001Z,10.40
2023-04-19T02:00:32.513Z,10.39
2023-04-19T02:02:59.821Z,10.37
2023-04-19T02:05:31.193Z,10.39
2023-04-19T02:08:00.602Z,10.33
2023-04-19T02:13:48.204Z,10.29
2023-04-19T02:16:16.314Z,10.27
2023-04-19T02:18:43.609Z,10.22
2023-04-19T02:21:11.519Z,10.16
2023-04-19T02:23:38.677Z,10.22
2023-04-19T02:26:11.275Z,10.17
2023-04-19T02:28:46.709Z,10.04
2023-04-19T02:31:21.925Z,10.11
2023-04-19T02:33:50.270Z,10.05
2023-04-19T02:36:20.770Z,9.93
2023-04-19T02:41:37.291Z,9.75
2023-04-19T02:44:07.508Z,9.94
2023-04-19T02:46:38.906Z,9.83
2023-04-19T02:49:10.431Z,9.94
2023-04-19T02:57:03.923Z,9.46
2023-04-19T02:59:41.684Z,9.66
2023-04-19T03:02:12.573Z,9.66
2023-04-19T03:04:41.989Z,9.58
2023-04-19T03:07:10.000Z,9.58
2023-04-19T03:09:49.326Z,9.40
2023-04-19T03:12:38.336Z,9.61
2023-04-19T03:15:14.994Z,9.61
2023-04-19T03:17:43.648Z,9.64
2023-04-19T03:20:12.337Z,9.57
2023-04-19T03:22:41.656Z,9.69
2023-04-19T03:25:16.466Z,9.72
2023-04-19T03:27:55.266Z,9.59
2023-04-19T03:33:10.662Z,9.68
2023-04-19T03:41:08.888Z,9.84
2023-04-19T03:43:39.208Z,9.84
2023-04-19T03:46:10.801Z,9.84
2023-04-19T03:48:45.959Z,9.85
2023-04-19T03:51:16.671Z,9.87
2023-04-19T03:53:57.114Z,9.92
2023-04-19T03:56:28.357Z,9.94
2023-04-19T03:59:09.182Z,9.93
2023-04-19T04:01:44.082Z,9.95
2023-04-19T04:04:24.669Z,9.95
2023-04-19T04:06:59.195Z,9.93
2023-04-19T04:09:29.430Z,9.96
2023-04-19T04:11:56.295Z,9.98
2023-04-19T04:14:37.830Z,9.97
2023-04-19T04:17:14.642Z,9.99
2023-04-19T04:22:31.473Z,9.99
2023-04-19T04:25:03.094Z,10.00
2023-04-19T04:27:31.001Z,9.70
2023-04-19T04:30:05.186Z,9.49
2023-04-19T04:35:23.352Z,9.99
2023-04-19T04:37:54.415Z,9.93
2023-04-19T04:40:24.803Z,10.04
2023-04-19T04:43:13.004Z,10.02
2023-04-19T04:45:53.342Z,10.02
2023-04-19T04:48:38.227Z,9.87
2023-04-19T04:51:08.273Z,9.86
2023-04-19T04:56:27.140Z,10.07
2023-04-19T04:58:56.512Z,10.11
2023-04-19T05:01:30.670Z,10.01
2023-04-19T05:04:01.012Z,10.12
2023-04-19T05:06:29.819Z,10.20
2023-04-19T05:09:04.287Z,10.11
2023-04-19T05:12:04.229Z,10.21
2023-04-19T05:14:53.479Z,10.22
2023-04-19T05:17:32.253Z,10.18
2023-04-19T05:19:59.387Z,9.95
2023-04-19T05:22:28.354Z,10.27
2023-04-19T05:25:03.800Z,10.04
2023-04-19T05:31:08.797Z,10.32
2023-04-19T05:39:31.665Z,10.46
2023-04-19T05:41:59.070Z,10.31
2023-04-19T05:44:29.696Z,10.00
2023-04-19T05:49:41.396Z,10.52
2023-04-19T05:52:18.911Z,10.61
2023-04-19T06:09:00.572Z,11.08
2023-04-19T06:11:38.443Z,11.08
2023-04-19T06:14:15.916Z,10.85
2023-04-19T06:19:28.098Z,11.20
2023-04-19T06:22:03.809Z,10.81
2023-04-19T06:24:35.239Z,11.14
2023-04-19T06:27:03.513Z,11.29
2023-04-19T06:32:34.093Z,11.21
2023-04-19T06:35:10.106Z,11.13
2023-04-19T06:37:46.947Z,10.93
2023-04-19T06:42:57.285Z,10.91
2023-04-19T06:45:31.917Z,11.12
2023-04-19T06:48:24.422Z,10.82
2023-04-19T06:50:58.680Z,11.10
2023-04-19T06:53:55.051Z,10.90
2023-04-19T06:59:56.995Z,10.96
2023-04-19T07:02:26.346Z,10.70
2023-04-19T07:04:54.416Z,10.89
2023-04-19T07:07:34.107Z,10.78
2023-04-19T07:10:06.753Z,10.80
2023-04-19T07:12:52.567Z,10.97
2023-04-19T07:15:20.304Z,10.99
2023-04-19T07:20:37.771Z,10.96
2023-04-19T07:23:10.395Z,10.51
2023-04-19T07:25:44.219Z,10.73
2023-04-19T07:28:26.661Z,10.97
2023-04-19T07:30:59.517Z,11.29
2023-04-19T07:33:36.796Z,11.07
2023-04-19T07:49:42.505Z,11.71
2023-04-19T07:52:12.702Z,11.72
2023-04-19T07:54:47.556Z,11.59
2023-04-19T07:57:19.697Z,12.06
2023-04-19T08:05:26.103Z,12.93
2023-04-19T08:07:56.996Z,12.88
2023-04-19T08:10:44.835Z,12.95
2023-04-19T08:13:21.452Z,12.89
2023-04-19T08:16:24.406Z,12.96
2023-04-19T08:21:41.954Z,13.46
2023-04-19T08:24:22.664Z,13.79
2023-04-19T08:27:15.898Z,13.30
2023-04-19T08:32:34.750Z,13.12
2023-04-19T08:40:58.470Z,13.31
2023-04-19T08:43:30.673Z,13.58
2023-04-19T08:46:09.079Z,13.86
2023-04-19T08:48:43.326Z,13.84
2023-04-19T08:51:14.876Z,14.02
2023-04-19T08:53:47.921Z,13.94
2023-04-19T08:59:18.838Z,14.15
2023-04-19T09:07:46.374Z,13.33
2023-04-19T09:10:20.723Z,13.59
2023-04-19T09:13:07.069Z,13.70
2023-04-19T09:15:46.431Z,13.76
2023-04-19T09:18:33.116Z,13.84
2023-04-19T09:26:37.198Z,14.18
2023-04-19T09:29:13.780Z,14.19
2023-04-19T09:32:03.132Z,14.16
2023-04-19T09:34:31.982Z,14.28
2023-04-19T09:37:39.042Z,14.31
2023-04-19T09:40:28.246Z,14.26
2023-04-19T09:43:36.473Z,14.38
2023-04-19T09:46:00.751Z,14.38
2023-04-19T09:48:27.279Z,14.50
2023-04-19T09:51:07.442Z,14.21
2023-04-19T09:53:43.568Z,14.12
2023-04-19T09:56:16.202Z,14.28
2023-04-19T09:58:56.516Z,14.29
2023-04-19T10:01:40.130Z,14.31
2023-04-19T10:04:20.206Z,14.14
2023-04-19T10:07:19.500Z,13.85
2023-04-19T10:12:52.228Z,14.27
2023-04-19T10:15:42.863Z,13.96
2023-04-19T10:18:18.983Z,13.88
2023-04-19T10:21:07.094Z,13.93
2023-04-19T10:23:39.047Z,14.16
2023-04-19T10:26:08.042Z,14.29
2023-04-19T10:28:42.280Z,14.54
2023-04-19T10:31:13.745Z,14.25
2023-04-19T10:33:43.761Z,14.58
2023-04-19T10:36:24.790Z,13.84
2023-04-19T10:38:56.075Z,14.33
2023-04-19T10:41:29.356Z,13.94
2023-04-19T10:44:01.109Z,14.30
2023-04-19T10:46:34.372Z,14.53
2023-04-19T10:49:14.438Z,14.44
2023-04-19T10:51:58.452Z,14.68
2023-04-19T10:54:40.300Z,15.18
2023-04-19T11:03:52.750Z,14.29
2023-04-19T11:09:27.913Z,14.45
2023-04-19T11:12:04.134Z,14.55
2023-04-19T11:17:39.886Z,13.96
2023-04-19T11:20:11.865Z,14.17
2023-04-19T11:23:01.653Z,14.65
2023-04-19T11:25:35.834Z,14.89
2023-04-19T11:28:05.249Z,15.08
2023-04-19T11:30:37.026Z,14.59
2023-04-19T11:33:09.462Z,14.62
2023-04-19T11:35:42.301Z,15.04
2023-04-19T11:43:58.115Z,14.25
2023-04-19T11:46:29.197Z,14.96
2023-04-19T11:48:56.939Z,15.34
2023-04-19T11:51:27.974Z,15.13
2023-04-19T11:53:59.577Z,15.20
2023-04-19T11:56:32.240Z,15.51
2023-04-19T11:59:07.272Z,15.02
2023-04-19T12:01:41.163Z,15.02
2023-04-19T12:04:11.960Z,15.03
2023-04-19T12:06:43.380Z,15.11
2023-04-19T12:12:36.869Z,14.93
2023-04-19T12:15:24.838Z,15.04
2023-04-19T12:18:00.746Z,15.36
2023-04-19T12:20:38.999Z,15.53
2023-04-19T12:23:21.305Z,15.64
2023-04-19T12:25:54.572Z,15.70
2023-04-19T12:28:25.129Z,15.88
2023-04-19T12:31:00.975Z,15.95
2023-04-19T12:33:33.458Z,15.68
2023-04-19T12:36:13.979Z,15.58
2023-04-19T12:38:44.602Z,15.98
2023-04-19T12:41:11.219Z,16.11
2023-04-19T12:43:43.098Z,15.98
2023-04-19T12:46:16.286Z,15.93
2023-04-19T12:48:46.894Z,15.65
2023-04-19T12:51:14.575Z,15.76
2023-04-19T12:53:55.377Z,15.89
2023-04-19T12:56:25.162Z,15.99
2023-04-19T12:58:58.619Z,15.86
2023-04-19T13:01:49.068Z,15.84
2023-04-19T13:04:17.120Z,15.99
2023-04-19T13:06:48.152Z,16.18
2023-04-19T13:09:17.819Z,16.06
2023-04-19T13:11:53.954Z,15.92
2023-04-19T13:14:27.917Z,15.74
2023-04-19T13:16:57.361Z,15.89
2023-04-19T13:19:25.708Z,15.84
2023-04-19T13:24:36.181Z,15.78
2023-04-19T13:27:08.720Z,15.47
2023-04-19T13:32:31.950Z,15.22
2023-04-19T13:37:48.671Z,15.87
2023-04-19T13:40:22.282Z,16.11
2023-04-19T13:42:52.216Z,16.17
2023-04-19T13:45:28.276Z,15.75
2023-04-19T13:47:57.608Z,15.93
2023-04-19T13:50:37.700Z,15.33
2023-04-19T13:53:06.482Z,15.87
2023-04-19T13:55:37.492Z,15.38
2023-04-19T13:58:10.012Z,16.04
2023-04-19T14:00:38.913Z,15.98
2023-04-19T14:03:35.766Z,15.63
2023-04-19T14:08:52.487Z,15.45
2023-04-19T14:11:23.928Z,15.59
2023-04-19T14:13:57.092Z,15.82
2023-04-19T14:16:30.407Z,15.65
2023-04-19T14:18:57.925Z,15.64
2023-04-19T14:21:33.524Z,15.70
2023-04-19T14:24:00.718Z,15.48
2023-04-19T14:26:29.342Z,15.46
2023-04-19T14:29:02.432Z,15.44
2023-04-19T14:31:30.737Z,15.46
2023-04-19T14:33:59.581Z,15.45
2023-04-19T14:39:12.512Z,15.74
2023-04-19T14:41:45.108Z,15.31
2023-04-19T14:44:20.982Z,15.72
2023-04-19T14:46:48.408Z,16.14
2023-04-19T14:49:15.861Z,15.88
2023-04-19T14:51:46.086Z,16.02
2023-04-19T14:54:14.785Z,15.44
2023-04-19T14:59:27.584Z,15.06
2023-04-19T15:01:59.978Z,15.04
2023-04-19T15:04:31.640Z,14.95
2023-04-19T15:07:05.297Z,15.03
2023-04-19T15:09:33.818Z,15.37
2023-04-19T15:12:04.957Z,15.32
2023-04-19T15:14:41.096Z,15.20
2023-04-19T15:17:07.887Z,15.13
2023-04-19T15:19:37.645Z,15.05
2023-04-19T15:22:15.277Z,14.95
2023-04-19T15:24:45.428Z,14.95
2023-04-19T15:27:27.710Z,15.17
2023-04-19T15:29:58.879Z,15.14
2023-04-19T15:32:39.755Z,14.90
2023-04-19T15:35:12.397Z,14.39
2023-04-19T15:37:49.369Z,14.25
2023-04-19T15:40:18.302Z,14.28
2023-04-19T15:45:40.005Z,14.32
2023-04-19T15:48:14.623Z,14.27
2023-04-19T15:50:44.932Z,14.46
2023-04-19T15:56:44.827Z,14.07
2023-04-19T15:59:11.715Z,13.83
2023-04-19T16:01:43.806Z,13.94
2023-04-19T16:04:12.038Z,13.93
2023-04-19T16:06:43.201Z,13.60
2023-04-19T16:09:17.771Z,13.47
2023-04-19T16:11:53.136Z,13.89
2023-04-19T16:17:12.743Z,13.51
2023-04-19T16:19:47.741Z,13.19
2023-04-19T16:22:18.144Z,13.47
2023-04-19T16:27:51.788Z,13.53
2023-04-19T16:33:07.699Z,13.95
2023-04-19T16:35:39.993Z,13.76
2023-04-19T16:38:22.259Z,13.88
2023-04-19T16:40:51.881Z,13.60
2023-04-19T16:43:23.350Z,13.76
2023-04-19T16:45:57.193Z,13.68
2023-04-19T16:48:45.310Z,13.21
2023-04-19T16:54:29.715Z,13.28
2023-04-19T16:57:04.132Z,12.89
2023-04-19T16:59:34.857Z,12.78
2023-04-19T17:02:09.009Z,12.87
2023-04-19T17:04:42.985Z,12.63
2023-04-19T17:10:19.047Z,12.87
2023-04-19T17:12:52.362Z,12.48
2023-04-19T17:15:24.431Z,12.50
2023-04-19T17:17:57.657Z,12.54
2023-04-19T17:23:26.941Z,12.65
2023-04-19T17:32:20.134Z,12.44
2023-04-19T17:34:48.551Z,12.37
2023-04-19T17:37:21.784Z,12.22
2023-04-19T17:39:52.313Z,12.19
2023-04-19T17:42:20.989Z,12.16
2023-04-19T17:45:22.313Z,12.05
2023-04-19T17:48:01.982Z,12.01
2023-04-19T17:50:57.281Z,11.87
2023-04-19T17:53:40.715Z,11.91
2023-04-19T17:56:07.933Z,11.60
2023-04-19T17:58:39.411Z,11.69
2023-04-19T18:01:16.151Z,11.59
2023-04-19T18:07:12.854Z,11.57
2023-04-19T18:09:58.823Z,11.70
2023-04-19T18:12:31.029Z,11.51
2023-04-19T18:15:01.776Z,11.59
2023-04-19T18:17:38.029Z,11.53
2023-04-19T18:20:34.964Z,11.22
2023-04-19T18:23:06.400Z,11.33
2023-04-19T18:25:40.706Z,11.28
2023-04-19T18:28:12.031Z,11.07
2023-04-19T18:33:30.954Z,11.13
2023-04-19T18:35:59.312Z,10.83
2023-04-19T18:38:30.494Z,10.48
2023-04-19T18:46:24.714Z,10.45
2023-04-19T18:48:57.217Z,10.63
2023-04-19T18:51:27.012Z,10.81
2023-04-19T18:53:59.810Z,10.46
2023-04-19T18:56:58.916Z,10.72
2023-04-19T18:59:15.851Z,10.43
2023-04-19T19:01:52.454Z,10.53
2023-04-19T19:07:11.034Z,10.45
2023-04-19T19:09:56.896Z,10.40
2023-04-19T19:12:30.161Z,10.29
2023-04-19T19:15:07.622Z,10.07
2023-04-19T19:17:34.975Z,10.25
2023-04-19T19:20:18.132Z,9.82
2023-04-19T19:25:38.672Z,10.18
2023-04-19T19:30:56.717Z,9.93
2023-04-19T19:33:24.379Z,10.20
2023-04-19T19:36:02.569Z,10.03
2023-04-19T19:38:30.903Z,10.09
2023-04-19T19:43:36.955Z,9.69
2023-04-19T19:46:11.495Z,9.69
2023-04-19T19:48:53.484Z,10.03
2023-04-19T20:02:22.338Z,9.92
2023-04-19T20:05:16.476Z,9.81
2023-04-19T20:10:45.189Z,9.79
2023-04-19T20:13:19.007Z,9.34
2023-04-19T20:16:04.193Z,9.62
2023-04-19T20:18:32.979Z,9.59
2023-04-19T20:23:47.691Z,9.20
2023-04-19T20:26:19.227Z,9.18
2023-04-19T20:28:49.054Z,9.12
2023-04-19T20:31:23.766Z,8.79
2023-04-19T20:33:59.624Z,8.66
2023-04-19T20:39:14.011Z,8.57
2023-04-19T20:41:51.749Z,8.63
2023-04-19T20:44:25.309Z,8.58
2023-04-19T20:47:03.626Z,8.37
2023-04-19T20:57:49.768Z,8.35
2023-04-19T21:00:20.712Z,8.34
2023-04-19T21:03:04.466Z,8.30
2023-04-19T21:05:40.667Z,8.27
2023-04-19T21:16:14.095Z,8.15
2023-04-19T21:18:41.472Z,7.90
2023-04-19T21:21:11.158Z,7.85
2023-04-19T21:23:41.459Z,7.77
2023-04-19T21:26:13.327Z,7.98
2023-04-19T21:28:43.642Z,7.64
2023-04-19T21:34:28.217Z,7.81
2023-04-19T21:36:55.408Z,7.63
2023-04-19T21:39:23.729Z,7.80
2023-04-19T21:41:55.145Z,7.82
2023-04-19T21:44:32.189Z,7.56
2023-04-19T21:47:11.552Z,7.59
2023-04-19T21:49:47.513Z,7.45
2023-04-19T21:52:14.540Z,7.77
2023-04-19T21:54:41.837Z,7.75
2023-04-19T21:57:16.882Z,7.40
2023-04-19T21:59:44.741Z,7.36
2023-04-19T22:02:13.121Z,7.19
2023-04-19T22:04:46.714Z,7.43
2023-04-19T22:07:13.631Z,7.11
2023-04-19T22:09:43.737Z,7.28
2023-04-19T22:12:13.943Z,7.48
2023-04-19T22:14:41.823Z,6.93
2023-04-19T22:17:13.489Z,7.52
2023-04-19T22:19:41.723Z,7.24
2023-04-19T22:22:11.661Z,7.49
2023-04-19T22:27:21.263Z,7.24
2023-04-19T22:29:48.857Z,7.42
2023-04-19T22:35:24.657Z,7.47
2023-04-19T22:37:53.553Z,7.42
2023-04-19T22:40:21.989Z,7.37
2023-04-19T22:42:48.724Z,7.24
2023-04-19T22:45:17.785Z,7.23
2023-04-19T22:47:50.137Z,7.17
2023-04-19T22:50:20.389Z,7.15
2023-04-19T22:52:52.610Z,6.79
2023-04-19T22:55:20.347Z,6.78
2023-04-19T22:57:47.269Z,7.03
2023-04-19T23:00:18.167Z,7.17
2023-04-19T23:03:01.838Z,7.08
2023-04-19T23:05:33.625Z,6.95
2023-04-19T23:08:00.458Z,6.57
2023-04-19T23:10:29.116Z,7.04
2023-04-19T23:12:56.706Z,6.95
2023-04-19T23:15:25.403Z,7.11
2023-04-19T23:17:53.328Z,7.12
2023-04-19T23:20:20.950Z,7.03
2023-04-19T23:25:30.041Z,6.97
2023-04-19T23:28:03.736Z,7.06
2023-04-19T23:30:32.189Z,6.80
2023-04-19T23:33:02.476Z,7.00
2023-04-19T23:35:30.428Z,6.80
2023-04-19T23:38:00.250Z,6.99
2023-04-19T23:40:28.074Z,6.95
2023-04-19T23:42:55.975Z,7.02
2023-04-19T23:45:50.468Z,7.04
2023-04-19T23:48:18.857Z,7.02
2023-04-19T23:50:45.771Z,7.02
2023-04-19T23:53:19.670Z,6.85
2023-04-19T23:55:50.073Z,6.89
2023-04-19T23:58:20.977Z,6.92
